createdAt,value
2018-11-26T00:00:42.655Z,55.49
2018-11-26T00:03:08.639Z,55.86
2018-11-26T00:05:34.585Z,55.79
2018-11-26T00:08:00.523Z,55.21
2018-11-26T00:10:26.496Z,55.72
2018-11-26T00:12:52.475Z,55.17
2018-11-26T00:15:18.445Z,54.28
2018-11-26T00:17:44.426Z,54.57
2018-11-26T00:20:10.401Z,55.04
2018-11-26T00:22:36.376Z,54.61
2018-11-26T00:25:02.362Z,54.80
2018-11-26T00:27:28.342Z,53.64
2018-11-26T00:29:54.296Z,54.79
2018-11-26T00:32:20.266Z,53.25
2018-11-26T00:34:46.221Z,54.22
2018-11-26T00:37:12.186Z,54.42
2018-11-26T00:39:38.157Z,54.09
2018-11-26T00:42:04.110Z,54.66
2018-11-26T00:44:30.063Z,53.95
2018-11-26T00:46:56.014Z,54.21
2018-11-26T00:49:21.946Z,54.86
2018-11-26T00:51:47.904Z,55.00
2018-11-26T00:54:13.852Z,54.46
2018-11-26T00:56:39.842Z,54.33
2018-11-26T00:59:05.787Z,54.73
2018-11-26T01:01:31.766Z,54.02
2018-11-26T01:03:57.728Z,54.91
2018-11-26T01:06:23.673Z,55.51
2018-11-26T01:08:49.616Z,55.17
2018-11-26T01:11:15.592Z,55.37
2018-11-26T01:13:41.576Z,54.95
2018-11-26T01:16:07.512Z,55.47
2018-11-26T01:18:33.504Z,54.58
2018-11-26T01:20:59.447Z,54.90
2018-11-26T01:23:25.420Z,55.16
2018-11-26T01:25:51.371Z,55.19
2018-11-26T01:28:17.323Z,54.55
2018-11-26T01:30:43.284Z,55.56
2018-11-26T01:33:09.255Z,55.31
2018-11-26T01:35:35.216Z,56.01
2018-11-26T01:38:01.172Z,56.56
2018-11-26T01:40:27.193Z,56.60
2018-11-26T01:42:53.145Z,57.15
2018-11-26T01:45:19.102Z,57.22
2018-11-26T01:47:45.084Z,55.97
2018-11-26T01:50:11.038Z,55.69
2018-11-26T01:52:37.022Z,55.77
2018-11-26T01:55:03.027Z,56.17
2018-11-26T01:57:29.020Z,55.99
2018-11-26T01:59:54.991Z,56.85
2018-11-26T02:02:20.978Z,57.46
2018-11-26T02:04:46.955Z,57.33
2018-11-26T02:07:12.922Z,56.93
2018-11-26T02:09:38.872Z,57.79
2018-11-26T02:12:04.850Z,56.39
2018-11-26T02:14:30.817Z,56.12
2018-11-26T02:16:56.799Z,55.00
2018-11-26T02:19:22.764Z,56.05
2018-11-26T02:21:48.742Z,56.71
2018-11-26T02:24:14.734Z,56.19
2018-11-26T02:26:40.709Z,57.23
2018-11-26T02:29:06.649Z,58.19
2018-11-26T02:31:32.669Z,57.75
2018-11-26T02:33:58.612Z,57.30
2018-11-26T02:36:24.580Z,57.99
2018-11-26T02:38:50.524Z,57.59
2018-11-26T02:41:16.490Z,58.08
2018-11-26T02:43:42.460Z,57.77
2018-11-26T02:46:08.410Z,56.60
2018-11-26T02:48:34.386Z,57.24
2018-11-26T02:51:00.343Z,57.21
2018-11-26T02:53:26.308Z,56.56
2018-11-26T02:55:52.297Z,56.81
2018-11-26T02:58:18.264Z,56.73
2018-11-26T03:00:44.229Z,56.64
2018-11-26T03:03:10.200Z,56.17
2018-11-26T03:05:36.146Z,56.19
2018-11-26T03:08:02.107Z,56.58
2018-11-26T03:10:28.118Z,56.82
2018-11-26T03:12:54.086Z,56.48
2018-11-26T03:15:20.053Z,56.21
2018-11-26T03:17:46.001Z,57.31
2018-11-26T03:20:11.966Z,57.46
2018-11-26T03:22:37.916Z,56.50
2018-11-26T03:25:03.882Z,56.03
2018-11-26T03:27:29.829Z,55.85
2018-11-26T03:29:55.786Z,54.92
2018-11-26T03:32:21.734Z,56.02
2018-11-26T03:34:47.667Z,56.23
2018-11-26T03:37:13.638Z,57.33
2018-11-26T03:39:39.607Z,56.97
2018-11-26T03:42:05.583Z,57.01
2018-11-26T03:44:31.543Z,56.88
2018-11-26T03:46:57.526Z,56.89
2018-11-26T03:49:23.552Z,57.56
2018-11-26T03:51:49.682Z,57.18
2018-11-26T03:54:15.667Z,56.58
2018-11-26T03:56:41.633Z,56.04
2018-11-26T03:59:07.624Z,56.39
2018-11-26T04:01:33.614Z,57.63
2018-11-26T04:03:59.781Z,56.38
2018-11-26T04:06:25.779Z,55.81
2018-11-26T04:08:51.758Z,56.20
2018-11-26T04:11:17.690Z,55.51
2018-11-26T04:13:43.688Z,53.55
2018-11-26T04:16:09.671Z,53.61
2018-11-26T04:18:35.675Z,53.40
2018-11-26T04:21:01.635Z,53.63
2018-11-26T04:23:27.640Z,53.97
2018-11-26T04:25:53.608Z,53.70
2018-11-26T04:28:19.586Z,53.40
2018-11-26T04:30:45.543Z,54.05
2018-11-26T04:33:11.525Z,53.88
2018-11-26T04:35:37.820Z,55.03
2018-11-26T04:38:03.799Z,54.21
2018-11-26T04:40:29.751Z,54.22
2018-11-26T04:42:55.712Z,54.05
2018-11-26T04:45:21.703Z,54.53
2018-11-26T04:47:47.719Z,54.69
2018-11-26T04:50:15.718Z,55.32
2018-11-26T04:52:41.686Z,55.02
2018-11-26T04:55:07.656Z,54.72
2018-11-26T04:57:34.277Z,56.45
2018-11-26T04:59:59.585Z,57.14
2018-11-26T05:02:25.610Z,59.83
2018-11-26T05:04:51.577Z,60.27
2018-11-26T05:07:17.526Z,59.67
2018-11-26T05:09:43.466Z,58.75
2018-11-26T05:12:09.581Z,57.91
2018-11-26T05:14:35.553Z,57.13
2018-11-26T05:17:01.581Z,57.84
2018-11-26T05:19:27.676Z,57.26
2018-11-26T05:21:53.631Z,56.39
2018-11-26T05:24:19.601Z,56.61
2018-11-26T05:26:45.581Z,58.13
2018-11-26T05:29:11.544Z,59.94
2018-11-26T05:31:37.500Z,60.91
2018-11-26T05:34:03.485Z,60.90
2018-11-26T05:36:29.478Z,61.13
2018-11-26T05:38:55.447Z,60.68
2018-11-26T05:41:21.454Z,61.02
2018-11-26T05:43:47.436Z,60.34
2018-11-26T05:46:13.421Z,60.87
2018-11-26T05:48:39.399Z,60.67
2018-11-26T05:51:05.371Z,62.26
2018-11-26T05:53:31.347Z,61.61
2018-11-26T05:55:58.188Z,60.92
2018-11-26T05:58:24.158Z,61.31
2018-11-26T06:00:50.119Z,62.56
2018-11-26T06:03:16.109Z,62.50
2018-11-26T06:05:42.066Z,62.68
2018-11-26T06:08:08.034Z,61.54
2018-11-26T06:10:33.996Z,61.89
2018-11-26T06:13:00.707Z,62.64
2018-11-26T06:15:26.692Z,62.34
2018-11-26T06:17:52.676Z,63.16
2018-11-26T06:20:19.681Z,62.43
2018-11-26T06:22:44.667Z,62.02
2018-11-26T06:25:10.649Z,62.70
2018-11-26T06:27:37.621Z,63.21
2018-11-26T06:30:03.585Z,64.23
2018-11-26T06:32:29.532Z,63.42
2018-11-26T06:34:55.501Z,62.34
2018-11-26T06:37:21.455Z,62.73
2018-11-26T06:39:47.461Z,61.94
2018-11-26T06:42:13.415Z,61.80
2018-11-26T06:44:39.384Z,60.84
2018-11-26T06:47:05.331Z,60.56
2018-11-26T06:49:31.305Z,59.63
2018-11-26T06:51:57.247Z,61.11
2018-11-26T06:54:23.199Z,60.90
2018-11-26T06:56:49.170Z,61.17
2018-11-26T06:59:15.147Z,59.62
2018-11-26T07:01:41.141Z,60.85
2018-11-26T07:04:07.122Z,61.98
2018-11-26T07:06:33.126Z,61.51
2018-11-26T07:08:59.087Z,60.95
2018-11-26T07:11:25.070Z,61.02
2018-11-26T07:13:51.057Z,62.20
2018-11-26T07:16:17.056Z,60.87
2018-11-26T07:18:43.039Z,61.18
2018-11-26T07:21:09.028Z,61.11
2018-11-26T07:23:34.973Z,62.14
2018-11-26T07:26:00.945Z,61.63
2018-11-26T07:28:26.927Z,62.03
2018-11-26T07:30:52.890Z,62.04
2018-11-26T07:33:18.831Z,62.29
2018-11-26T07:35:44.807Z,62.88
2018-11-26T07:38:10.779Z,63.12
2018-11-26T07:40:36.800Z,63.57
2018-11-26T07:43:02.803Z,63.16
2018-11-26T07:45:28.778Z,63.41
2018-11-26T07:47:54.734Z,62.84
2018-11-26T07:50:20.683Z,62.56
2018-11-26T07:52:46.644Z,62.25
2018-11-26T07:55:12.617Z,63.57
2018-11-26T07:57:38.594Z,65.13
2018-11-26T08:00:04.617Z,64.78
2018-11-26T08:02:30.607Z,63.88
2018-11-26T08:04:56.625Z,63.45
2018-11-26T08:07:22.610Z,61.72
2018-11-26T08:09:48.575Z,61.41
2018-11-26T08:12:18.533Z,61.34
2018-11-26T08:14:44.534Z,60.04
2018-11-26T08:17:10.486Z,61.68
2018-11-26T08:19:36.422Z,61.67
2018-11-26T08:22:02.405Z,61.71
2018-11-26T08:24:28.397Z,60.59
2018-11-26T08:26:54.386Z,60.98
2018-11-26T08:29:20.345Z,60.60
2018-11-26T08:31:46.331Z,61.96
2018-11-26T08:34:12.844Z,61.76
2018-11-26T08:36:38.334Z,62.39
2018-11-26T08:39:04.276Z,61.38
2018-11-26T08:41:30.244Z,62.07
2018-11-26T08:43:56.228Z,61.45
2018-11-26T08:46:22.171Z,61.02
2018-11-26T08:48:48.139Z,60.59
2018-11-26T08:51:14.162Z,59.02
2018-11-26T08:53:40.158Z,58.74
2018-11-26T08:56:06.119Z,58.57
2018-11-26T08:58:32.082Z,59.25
2018-11-26T09:00:58.047Z,60.12
2018-11-26T09:03:24.010Z,59.27
2018-11-26T09:05:50.251Z,59.33
2018-11-26T09:08:16.197Z,58.43
2018-11-26T09:10:42.182Z,59.34
2018-11-26T09:13:08.147Z,60.92
2018-11-26T09:15:35.237Z,60.59
2018-11-26T09:18:01.180Z,59.40
2018-11-26T09:20:27.174Z,61.18
2018-11-26T09:22:53.120Z,59.50
2018-11-26T09:25:19.078Z,58.29
2018-11-26T09:27:45.035Z,56.20
2018-11-26T09:30:11.013Z,56.44
2018-11-26T09:32:37.009Z,56.36
2018-11-26T09:35:03.002Z,55.82
2018-11-26T09:37:28.986Z,55.24
2018-11-26T09:39:54.983Z,55.50
2018-11-26T09:42:20.992Z,57.43
2018-11-26T09:44:46.954Z,56.81
2018-11-26T09:47:12.936Z,56.27
2018-11-26T09:49:39.154Z,57.62
2018-11-26T09:52:04.970Z,58.05
2018-11-26T09:54:30.936Z,57.05
2018-11-26T09:56:56.892Z,56.33
2018-11-26T09:59:23.497Z,56.22
2018-11-26T10:01:50.643Z,59.01
2018-11-26T10:04:16.583Z,57.71
2018-11-26T10:06:43.436Z,56.80
2018-11-26T10:09:09.387Z,55.50
2018-11-26T10:11:35.323Z,56.39
2018-11-26T10:14:01.296Z,56.92
2018-11-26T10:16:27.251Z,56.31
2018-11-26T10:18:53.226Z,56.79
2018-11-26T10:21:19.196Z,54.87
2018-11-26T10:23:45.191Z,56.30
2018-11-26T10:26:11.135Z,56.23
2018-11-26T10:28:37.149Z,55.84
2018-11-26T10:31:03.111Z,54.67
2018-11-26T10:33:29.094Z,55.20
2018-11-26T10:35:55.076Z,54.86
2018-11-26T10:38:21.058Z,54.57
2018-11-26T10:40:47.028Z,56.13
2018-11-26T10:43:14.002Z,55.63
2018-11-26T10:45:40.011Z,55.68
2018-11-26T10:48:05.976Z,55.65
2018-11-26T10:50:32.058Z,56.70
2018-11-26T10:52:58.059Z,56.55
2018-11-26T10:55:24.018Z,56.56
2018-11-26T10:57:50.010Z,56.16
2018-11-26T11:00:15.961Z,55.59
2018-11-26T11:02:41.917Z,55.93
2018-11-26T11:05:07.925Z,55.62
2018-11-26T11:07:33.905Z,54.75
2018-11-26T11:09:59.880Z,54.79
2018-11-26T11:12:25.850Z,54.10
2018-11-26T11:14:51.935Z,53.57
2018-11-26T11:17:18.277Z,54.72
2018-11-26T11:19:44.309Z,54.18
2018-11-26T11:22:11.234Z,54.04
2018-11-26T11:24:37.202Z,53.04
2018-11-26T11:27:04.198Z,53.14
2018-11-26T11:29:30.181Z,52.50
2018-11-26T11:31:57.514Z,53.55
2018-11-26T11:34:24.156Z,54.10
2018-11-26T11:36:50.430Z,53.25
2018-11-26T11:39:16.471Z,53.81
2018-11-26T11:41:42.479Z,53.21
2018-11-26T11:44:09.177Z,52.77
2018-11-26T11:46:35.169Z,51.66
2018-11-26T11:49:01.837Z,51.81
2018-11-26T11:51:27.797Z,52.49
2018-11-26T11:53:53.824Z,52.34
2018-11-26T11:56:20.794Z,53.11
2018-11-26T11:58:48.050Z,52.55
2018-11-26T12:01:14.012Z,51.83
2018-11-26T12:03:39.991Z,53.01
2018-11-26T12:06:05.952Z,52.78
2018-11-26T12:08:31.905Z,52.04
2018-11-26T12:10:57.877Z,52.24
2018-11-26T12:13:23.881Z,51.43
2018-11-26T12:15:49.838Z,52.30
2018-11-26T12:18:15.802Z,52.06
2018-11-26T12:20:41.787Z,51.68
2018-11-26T12:23:08.296Z,51.43
2018-11-26T12:25:35.283Z,51.97
2018-11-26T12:28:01.367Z,51.35
2018-11-26T12:30:27.342Z,52.08
2018-11-26T12:32:53.299Z,54.37
2018-11-26T12:35:19.292Z,53.99
2018-11-26T12:37:45.241Z,54.48
2018-11-26T12:40:11.240Z,54.79
2018-11-26T12:42:37.236Z,55.06
2018-11-26T12:45:03.317Z,54.52
2018-11-26T12:47:29.354Z,54.97
2018-11-26T12:49:55.355Z,54.87
2018-11-26T12:52:22.356Z,55.28
2018-11-26T12:54:48.355Z,54.20
2018-11-26T12:57:14.333Z,54.32
2018-11-26T12:59:40.325Z,54.07
2018-11-26T13:02:06.318Z,53.31
2018-11-26T13:04:32.301Z,53.69
2018-11-26T13:06:59.254Z,53.54
2018-11-26T13:09:25.260Z,54.03
2018-11-26T13:11:51.259Z,54.61
2018-11-26T13:14:17.213Z,53.77
2018-11-26T13:16:43.912Z,54.26
2018-11-26T13:19:10.867Z,53.84
2018-11-26T13:21:36.826Z,51.81
2018-11-26T13:24:02.964Z,52.16
2018-11-26T13:26:28.920Z,51.45
2018-11-26T13:28:54.861Z,51.77
2018-11-26T13:31:21.756Z,52.04
2018-11-26T13:33:47.723Z,53.28
2018-11-26T13:36:13.927Z,53.35
2018-11-26T13:38:39.740Z,56.26
2018-11-26T13:41:06.524Z,55.30
2018-11-26T13:43:33.741Z,54.61
2018-11-26T13:45:59.725Z,54.03
2018-11-26T13:48:25.664Z,52.78
2018-11-26T13:50:51.672Z,51.52
2018-11-26T13:53:17.634Z,51.68
2018-11-26T13:55:43.607Z,51.25
2018-11-26T13:58:09.556Z,51.29
2018-11-26T14:00:36.032Z,53.42
2018-11-26T14:03:02.002Z,53.18
2018-11-26T14:05:27.991Z,53.00
2018-11-26T14:07:53.968Z,53.74
2018-11-26T14:10:21.819Z,54.13
2018-11-26T14:12:47.797Z,56.27
2018-11-26T14:15:13.782Z,56.06
2018-11-26T14:17:40.562Z,55.46
2018-11-26T14:20:06.555Z,54.57
2018-11-26T14:22:36.023Z,52.79
2018-11-26T14:25:02.993Z,52.24
2018-11-26T14:27:28.946Z,53.62
2018-11-26T14:29:54.905Z,51.66
2018-11-26T14:32:21.224Z,51.05
2018-11-26T14:34:46.872Z,51.30
2018-11-26T14:37:12.855Z,52.72
2018-11-26T14:39:38.853Z,51.97
2018-11-26T14:42:04.801Z,52.30
2018-11-26T14:44:30.788Z,51.66
2018-11-26T14:46:58.757Z,50.76
2018-11-26T14:49:24.743Z,49.01
2018-11-26T14:51:50.712Z,47.95
2018-11-26T14:54:17.579Z,49.96
2018-11-26T14:56:43.554Z,49.97
2018-11-26T14:59:09.525Z,51.06
2018-11-26T15:01:35.510Z,51.24
2018-11-26T15:06:33.841Z,49.22
2018-11-26T15:08:59.835Z,47.70
2018-11-26T15:11:25.828Z,47.47
2018-11-26T15:13:51.882Z,47.62
2018-11-26T15:16:17.893Z,48.79
2018-11-26T15:18:43.866Z,49.19
2018-11-26T15:21:09.867Z,49.41
2018-11-26T15:23:35.851Z,50.06
2018-11-26T15:26:02.527Z,51.39
2018-11-26T15:28:28.490Z,52.63
2018-11-26T15:30:54.487Z,52.53
2018-11-26T15:33:20.493Z,52.49
2018-11-26T15:35:47.783Z,52.80
2018-11-26T15:38:13.757Z,52.21
2018-11-26T15:40:39.710Z,52.34
2018-11-26T15:43:09.513Z,52.10
2018-11-26T15:45:35.485Z,52.97
2018-11-26T15:48:01.531Z,53.13
2018-11-26T15:50:27.485Z,51.97
2018-11-26T15:52:54.501Z,53.04
2018-11-26T15:55:20.469Z,53.74
2018-11-26T15:57:47.437Z,52.85
2018-11-26T16:00:13.481Z,52.49
2018-11-26T16:02:39.500Z,51.32
2018-11-26T16:05:05.463Z,51.61
2018-11-26T16:07:31.463Z,52.25
2018-11-26T16:09:57.455Z,51.99
2018-11-26T16:12:23.441Z,51.10
2018-11-26T16:14:49.399Z,51.50
2018-11-26T16:17:15.365Z,51.66
2018-11-26T16:19:41.322Z,52.56
2018-11-26T16:22:07.322Z,52.50
2018-11-26T16:24:33.278Z,51.96
2018-11-26T16:26:59.467Z,52.38
2018-11-26T16:29:25.502Z,51.15
2018-11-26T16:31:51.516Z,50.12
2018-11-26T16:34:17.489Z,50.49
2018-11-26T16:36:43.438Z,51.64
2018-11-26T16:39:09.411Z,52.49
2018-11-26T16:41:35.416Z,52.43
2018-11-26T16:44:01.592Z,52.33
2018-11-26T16:46:27.649Z,51.85
2018-11-26T16:48:53.616Z,51.50
2018-11-26T16:51:19.580Z,52.60
2018-11-26T16:53:45.564Z,52.88
2018-11-26T16:56:11.586Z,51.31
2018-11-26T16:58:37.529Z,50.93
2018-11-26T17:01:03.507Z,51.38
2018-11-26T17:03:29.512Z,51.91
2018-11-26T17:05:55.477Z,52.24
2018-11-26T17:08:21.498Z,51.79
2018-11-26T17:10:47.859Z,52.23
2018-11-26T17:13:13.547Z,52.00
2018-11-26T17:15:39.499Z,52.51
2018-11-26T17:18:05.460Z,50.58
2018-11-26T17:20:36.183Z,51.66
2018-11-26T17:23:02.992Z,51.45
2018-11-26T17:25:28.998Z,50.67
2018-11-26T17:27:55.127Z,50.80
2018-11-26T17:30:21.154Z,51.44
2018-11-26T17:32:47.280Z,52.79
2018-11-26T17:35:13.328Z,52.56
2018-11-26T17:37:42.823Z,53.39
2018-11-26T17:40:06.825Z,52.77
2018-11-26T17:42:32.814Z,51.89
2018-11-26T17:44:58.795Z,52.31
2018-11-26T17:47:25.664Z,51.62
2018-11-26T17:49:51.656Z,52.09
2018-11-26T17:52:19.330Z,53.87
2018-11-26T17:54:45.353Z,53.30
2018-11-26T17:57:11.386Z,53.30
2018-11-26T17:59:38.182Z,52.31
2018-11-26T18:02:04.243Z,52.34
2018-11-26T18:04:30.346Z,52.54
2018-11-26T18:06:57.635Z,50.14
2018-11-26T18:09:23.647Z,50.16
2018-11-26T18:11:49.773Z,51.38
2018-11-26T18:14:15.750Z,50.93
2018-11-26T18:16:41.749Z,52.68
2018-11-26T18:19:07.839Z,51.69
2018-11-26T18:21:34.789Z,52.09
2018-11-26T18:24:00.811Z,52.46
2018-11-26T18:26:26.919Z,51.73
2018-11-26T18:28:52.958Z,51.40
2018-11-26T18:31:19.017Z,51.60
2018-11-26T18:33:45.018Z,51.21
2018-11-26T18:36:11.450Z,50.54
2018-11-26T18:38:37.516Z,51.05
2018-11-26T18:41:03.507Z,52.02
2018-11-26T18:43:29.573Z,51.42
2018-11-26T18:45:55.637Z,50.94
2018-11-26T18:48:22.459Z,50.88
2018-11-26T18:50:47.661Z,51.53
2018-11-26T18:53:13.654Z,50.77
2018-11-26T18:55:39.670Z,50.66
2018-11-26T18:58:06.386Z,49.12
2018-11-26T19:00:32.404Z,50.18
2018-11-26T19:02:58.544Z,49.33
2018-11-26T19:05:25.125Z,48.39
2018-11-26T19:07:51.193Z,48.65
2018-11-26T19:10:17.318Z,48.44
2018-11-26T19:12:43.333Z,47.78
2018-11-26T19:15:09.395Z,49.10
2018-11-26T19:17:35.443Z,49.28
2018-11-26T19:20:01.455Z,49.76
2018-11-26T19:22:28.701Z,49.60
2018-11-26T19:24:54.758Z,48.74
2018-11-26T19:27:21.234Z,48.54
2018-11-26T19:29:47.386Z,48.47
2018-11-26T19:32:13.452Z,48.40
2018-11-26T19:34:39.653Z,48.66
2018-11-26T19:37:06.686Z,47.89
2018-11-26T19:39:32.742Z,47.91
2018-11-26T19:41:59.673Z,48.60
2018-11-26T19:44:25.812Z,49.54
2018-11-26T19:46:51.972Z,50.15
2018-11-26T19:49:18.244Z,48.99
2018-11-26T19:51:44.437Z,50.01
2018-11-26T19:54:10.672Z,50.20
2018-11-26T19:56:36.948Z,49.78
2018-11-26T19:59:03.017Z,50.20
2018-11-26T20:01:33.394Z,50.48
2018-11-26T20:03:59.482Z,50.59
2018-11-26T20:06:25.496Z,50.97
2018-11-26T20:08:51.623Z,51.66
2018-11-26T20:11:17.691Z,51.92
2018-11-26T20:13:43.783Z,51.22
2018-11-26T20:16:10.054Z,51.69
2018-11-26T20:18:36.085Z,51.20
2018-11-26T20:21:02.150Z,50.84
2018-11-26T20:23:28.255Z,49.99
2018-11-26T20:25:54.448Z,50.52
2018-11-26T20:28:20.554Z,50.15
2018-11-26T20:30:47.256Z,49.94
2018-11-26T20:33:16.787Z,49.66
2018-11-26T20:35:42.774Z,49.70
2018-11-26T20:38:08.769Z,49.72
2018-11-26T20:40:34.829Z,50.09
2018-11-26T20:43:00.841Z,51.38
2018-11-26T20:45:26.898Z,52.84
2018-11-26T20:47:57.955Z,51.73
2018-11-26T20:50:23.943Z,50.78
2018-11-26T20:52:50.013Z,50.96
2018-11-26T20:55:16.001Z,51.44
2018-11-26T20:57:41.992Z,52.27
2018-11-26T21:00:07.948Z,52.77
2018-11-26T21:02:34.496Z,53.09
2018-11-26T21:05:00.506Z,51.94
2018-11-26T21:07:26.546Z,50.81
2018-11-26T21:09:52.521Z,50.30
2018-11-26T21:12:18.553Z,49.69
2018-11-26T21:14:44.547Z,49.78
2018-11-26T21:19:42.515Z,49.51
2018-11-26T21:22:08.509Z,50.85
2018-11-26T21:24:34.556Z,50.92
2018-11-26T21:27:03.784Z,49.74
2018-11-26T21:29:29.926Z,51.08
2018-11-26T21:31:55.942Z,51.70
2018-11-26T21:34:22.010Z,52.42
2018-11-26T21:36:48.065Z,50.71
2018-11-26T21:39:14.039Z,50.06
2018-11-26T21:41:40.032Z,50.24
2018-11-26T21:46:37.207Z,52.01
2018-11-26T21:49:03.284Z,51.93
2018-11-26T21:51:29.718Z,51.48
2018-11-26T21:53:55.713Z,51.71
2018-11-26T21:56:22.533Z,52.26
2018-11-26T21:58:48.648Z,50.77
2018-11-26T22:01:14.640Z,51.31
2018-11-26T22:03:40.634Z,51.04
2018-11-26T22:06:06.619Z,52.08
2018-11-26T22:08:32.605Z,52.53
2018-11-26T22:10:58.593Z,52.14
2018-11-26T22:13:24.600Z,52.14
2018-11-26T22:15:50.680Z,52.24
2018-11-26T22:18:16.705Z,51.47
2018-11-26T22:20:43.766Z,51.65
2018-11-26T22:23:09.794Z,52.05
2018-11-26T22:25:35.805Z,52.71
2018-11-26T22:28:01.826Z,51.84
2018-11-26T22:30:27.800Z,51.33
2018-11-26T22:32:53.795Z,52.05
2018-11-26T22:35:19.844Z,53.21
2018-11-26T22:37:45.843Z,53.15
2018-11-26T22:40:11.838Z,54.10
2018-11-26T22:42:38.442Z,54.04
2018-11-26T22:45:04.404Z,52.05
2018-11-26T22:47:30.397Z,52.64
2018-11-26T22:49:56.383Z,53.30
2018-11-26T22:52:22.503Z,53.35
2018-11-26T22:54:49.264Z,53.10
2018-11-26T22:57:15.278Z,53.59
2018-11-26T22:59:41.324Z,54.40
2018-11-26T23:02:07.340Z,54.45
2018-11-26T23:04:33.347Z,53.49
2018-11-26T23:06:59.317Z,52.89
2018-11-26T23:09:25.304Z,53.04
2018-11-26T23:11:51.305Z,52.25
2018-11-26T23:14:17.295Z,52.51
2018-11-26T23:16:43.261Z,51.74
2018-11-26T23:19:09.256Z,50.68
2018-11-26T23:21:35.256Z,50.31
2018-11-26T23:24:01.300Z,51.16
2018-11-26T23:26:27.283Z,51.52
2018-11-26T23:28:53.274Z,51.37
2018-11-26T23:31:19.229Z,51.40
2018-11-26T23:33:45.218Z,52.46
2018-11-26T23:36:11.171Z,51.53
2018-11-26T23:38:37.162Z,52.25
2018-11-26T23:41:03.154Z,51.75
2018-11-26T23:43:29.142Z,52.57
2018-11-26T23:45:55.143Z,51.88
2018-11-26T23:48:21.124Z,52.16
2018-11-26T23:50:47.118Z,51.28
2018-11-26T23:53:13.106Z,51.15
2018-11-26T23:55:39.060Z,51.36
2018-11-26T23:58:05.094Z,51.44
